createdAt,value
2019-05-23T00:02:15.046Z,12.44
2019-05-23T00:04:48.182Z,12.43
2019-05-23T00:07:18.617Z,12.46
2019-05-23T00:09:47.040Z,12.52
2019-05-23T00:12:32.799Z,12.46
2019-05-23T00:15:08.607Z,12.49
2019-05-23T00:17:36.639Z,12.46
2019-05-23T00:20:06.998Z,12.46
2019-05-23T00:22:35.485Z,12.47
2019-05-23T00:25:04.500Z,12.46
2019-05-23T00:27:33.776Z,12.45
2019-05-23T00:30:04.380Z,12.45
2019-05-23T00:32:40.426Z,12.45
2019-05-23T00:35:09.745Z,12.39
2019-05-23T00:37:40.259Z,12.42
2019-05-23T00:40:10.049Z,12.39
2019-05-23T00:42:37.941Z,12.41
2019-05-23T00:45:06.676Z,12.44
2019-05-23T00:47:34.405Z,12.38
2019-05-23T00:50:05.715Z,12.40
2019-05-23T00:52:33.419Z,12.40
2019-05-23T00:55:02.465Z,12.34
2019-05-23T00:57:32.921Z,12.34
2019-05-23T01:00:01.025Z,12.27
2019-05-23T01:02:30.021Z,12.27
2019-05-23T01:04:58.372Z,12.27
2019-05-23T01:07:26.375Z,12.27
2019-05-23T01:09:56.211Z,12.24
2019-05-23T01:12:26.758Z,12.24
2019-05-23T01:14:55.253Z,12.25
2019-05-23T01:17:25.099Z,12.25
2019-05-23T01:19:54.002Z,12.29
2019-05-23T01:22:22.365Z,12.28
2019-05-23T01:24:54.401Z,12.28
2019-05-23T01:27:22.935Z,12.25
2019-05-23T01:29:51.908Z,12.25
2019-05-23T01:32:39.432Z,12.24
2019-05-23T01:35:10.006Z,12.15
2019-05-23T01:37:37.944Z,12.15
2019-05-23T01:40:06.615Z,12.23
2019-05-23T01:42:34.646Z,12.22
2019-05-23T01:45:02.850Z,12.15
2019-05-23T01:47:31.862Z,12.11
2019-05-23T01:50:00.830Z,12.11
2019-05-23T01:52:29.729Z,12.16
2019-05-23T01:54:58.655Z,12.12
2019-05-23T01:57:26.537Z,12.11
2019-05-23T02:00:09.030Z,12.10
2019-05-23T02:02:26.846Z,12.01
2019-05-23T02:04:55.939Z,12.02
2019-05-23T02:07:24.405Z,12.02
2019-05-23T02:09:53.089Z,11.96
2019-05-23T02:12:21.387Z,11.96
2019-05-23T02:14:49.355Z,11.96
2019-05-23T02:17:17.764Z,12.00
2019-05-23T02:19:47.654Z,11.96
2019-05-23T02:22:15.686Z,11.93
2019-05-23T02:24:44.228Z,11.99
2019-05-23T02:27:12.246Z,11.99
2019-05-23T02:29:41.475Z,11.92
2019-05-23T02:32:10.794Z,11.92
2019-05-23T02:34:38.758Z,11.87
2019-05-23T02:37:13.476Z,11.89
2019-05-23T02:39:56.697Z,11.84
2019-05-23T02:42:40.179Z,11.87
2019-05-23T02:45:12.309Z,11.86
2019-05-23T02:47:43.728Z,11.87
2019-05-23T02:50:19.900Z,11.75
2019-05-23T02:52:53.663Z,11.75
2019-05-23T02:55:27.538Z,11.78
2019-05-23T02:58:00.306Z,11.83
2019-05-23T03:00:55.701Z,11.79
2019-05-23T03:03:28.721Z,11.77
2019-05-23T03:06:00.406Z,11.77
2019-05-23T03:08:30.870Z,11.79
2019-05-23T03:11:19.429Z,11.79
2019-05-23T03:13:48.884Z,11.75
2019-05-23T03:16:23.900Z,11.75
2019-05-23T03:18:58.174Z,11.76
2019-05-23T03:21:25.953Z,11.80
2019-05-23T03:23:55.502Z,11.79
2019-05-23T03:26:54.965Z,11.71
2019-05-23T03:29:23.139Z,11.71
2019-05-23T03:32:00.715Z,11.70
2019-05-23T03:34:33.154Z,11.71
2019-05-23T03:37:01.194Z,11.73
2019-05-23T03:39:29.053Z,11.72
2019-05-23T03:41:56.889Z,11.67
2019-05-23T03:44:26.576Z,11.71
2019-05-23T03:46:56.615Z,11.71
2019-05-23T03:49:26.814Z,11.71
2019-05-23T03:51:55.114Z,11.66
2019-05-23T03:54:25.291Z,11.67
2019-05-23T03:56:53.516Z,11.68
2019-05-23T03:59:24.880Z,11.68
2019-05-23T04:01:54.474Z,11.67
2019-05-23T04:04:23.814Z,11.64
2019-05-23T04:06:52.165Z,11.60
2019-05-23T04:09:20.343Z,11.60
2019-05-23T04:11:48.260Z,11.62
2019-05-23T04:14:17.254Z,11.61
2019-05-23T04:16:46.292Z,11.61
2019-05-23T04:19:14.861Z,11.63
2019-05-23T04:21:42.704Z,11.59
2019-05-23T04:24:10.867Z,11.61
2019-05-23T04:26:39.129Z,11.59
2019-05-23T04:29:07.498Z,11.52
2019-05-23T04:31:35.234Z,11.54
2019-05-23T04:34:03.796Z,11.56
2019-05-23T04:36:31.597Z,11.60
2019-05-23T04:38:59.359Z,11.60
2019-05-23T04:41:27.344Z,11.57
2019-05-23T04:43:55.307Z,11.59
2019-05-23T04:46:23.494Z,11.58
2019-05-23T04:48:52.979Z,11.61
2019-05-23T04:51:21.270Z,11.59
2019-05-23T04:53:49.441Z,11.59
2019-05-23T04:56:17.394Z,11.52
2019-05-23T04:58:45.474Z,11.51
2019-05-23T05:01:14.069Z,11.55
2019-05-23T05:03:44.706Z,11.49
2019-05-23T05:06:12.720Z,11.49
2019-05-23T05:08:41.198Z,11.56
2019-05-23T05:11:09.304Z,11.56
2019-05-23T05:13:37.879Z,11.58
2019-05-23T05:16:06.545Z,11.50
2019-05-23T05:18:34.655Z,11.50
2019-05-23T05:21:04.536Z,11.52
2019-05-23T05:23:32.525Z,11.52
2019-05-23T05:26:00.474Z,11.56
2019-05-23T05:28:28.368Z,11.56
2019-05-23T05:30:56.092Z,11.57
2019-05-23T05:33:23.809Z,11.60
2019-05-23T05:35:51.785Z,11.63
2019-05-23T05:38:20.102Z,11.61
2019-05-23T05:40:48.079Z,11.64
2019-05-23T05:43:16.512Z,11.63
2019-05-23T05:45:44.799Z,11.66
2019-05-23T05:48:12.827Z,11.66
2019-05-23T05:50:40.751Z,11.63
2019-05-23T05:53:08.850Z,11.64
2019-05-23T05:55:36.639Z,11.68
2019-05-23T05:58:05.345Z,11.68
2019-05-23T06:00:51.333Z,11.65
2019-05-23T06:03:20.355Z,11.68
2019-05-23T06:06:06.340Z,11.70
2019-05-23T06:08:37.639Z,11.67
2019-05-23T06:11:05.475Z,11.71
2019-05-23T06:13:33.451Z,11.70
2019-05-23T06:16:02.152Z,11.65
2019-05-23T06:18:31.554Z,11.67
2019-05-23T06:21:00.979Z,11.70
2019-05-23T06:23:29.399Z,11.69
2019-05-23T06:25:57.382Z,11.69
2019-05-23T06:28:25.470Z,11.70
2019-05-23T06:30:54.224Z,11.73
2019-05-23T06:33:24.295Z,11.72
2019-05-23T06:35:53.706Z,11.72
2019-05-23T06:38:21.631Z,11.71
2019-05-23T06:40:49.662Z,11.68
2019-05-23T06:43:18.259Z,11.71
2019-05-23T06:45:46.720Z,11.67
2019-05-23T06:48:16.168Z,11.73
2019-05-23T06:50:44.775Z,11.73
2019-05-23T06:53:12.516Z,11.77
2019-05-23T06:55:40.491Z,11.74
2019-05-23T06:58:08.290Z,11.74
2019-05-23T07:00:36.853Z,11.77
2019-05-23T07:03:05.259Z,11.76
2019-05-23T07:05:36.194Z,11.75
2019-05-23T07:08:04.588Z,11.78
2019-05-23T07:10:33.157Z,11.81
2019-05-23T07:13:01.033Z,11.82
2019-05-23T07:15:29.771Z,11.82
2019-05-23T07:17:58.727Z,11.88
2019-05-23T07:20:26.983Z,11.86
2019-05-23T07:22:54.895Z,11.86
2019-05-23T07:25:23.359Z,11.87
2019-05-23T07:27:51.459Z,11.79
2019-05-23T07:30:23.317Z,11.72
2019-05-23T07:32:51.207Z,11.72
2019-05-23T07:35:19.312Z,11.72
2019-05-23T07:37:47.109Z,11.76
2019-05-23T07:40:15.427Z,11.77
2019-05-23T07:42:43.482Z,11.76
2019-05-23T07:45:15.666Z,11.75
2019-05-23T07:47:43.525Z,11.76
2019-05-23T07:50:11.576Z,11.71
2019-05-23T07:52:40.147Z,11.67
2019-05-23T07:55:13.732Z,11.70
2019-05-23T07:57:42.565Z,11.70
2019-05-23T08:00:17.758Z,11.73
2019-05-23T08:02:46.848Z,11.74
2019-05-23T08:05:15.001Z,11.78
2019-05-23T08:07:43.474Z,11.71
2019-05-23T08:10:11.666Z,11.80
2019-05-23T08:12:39.572Z,11.80
2019-05-23T08:15:09.040Z,11.77
2019-05-23T08:17:37.646Z,11.77
2019-05-23T08:20:05.613Z,11.79
2019-05-23T08:22:33.388Z,11.79
2019-05-23T08:25:01.225Z,11.79
2019-05-23T08:27:29.916Z,11.82
2019-05-23T08:29:58.147Z,11.82
2019-05-23T08:32:26.034Z,11.82
2019-05-23T08:34:54.156Z,11.86
2019-05-23T08:37:22.016Z,11.82
2019-05-23T08:39:51.258Z,12.07
2019-05-23T08:42:20.025Z,12.26
2019-05-23T08:44:47.855Z,12.26
2019-05-23T08:47:16.612Z,12.33
2019-05-23T08:49:44.794Z,12.58
2019-05-23T08:52:12.664Z,12.58
2019-05-23T08:54:41.022Z,12.35
2019-05-23T08:57:10.519Z,12.34
2019-05-23T08:59:39.726Z,12.22
2019-05-23T09:02:09.495Z,12.04
2019-05-23T09:04:37.379Z,11.99
2019-05-23T09:07:06.446Z,11.99
2019-05-23T09:09:34.945Z,12.01
2019-05-23T09:12:03.521Z,12.00
2019-05-23T09:14:31.539Z,12.06
2019-05-23T09:16:59.623Z,12.06
2019-05-23T09:19:27.481Z,12.10
2019-05-23T09:21:58.008Z,12.75
2019-05-23T09:24:25.288Z,12.75
2019-05-23T09:26:52.968Z,13.04
2019-05-23T09:29:21.466Z,13.24
2019-05-23T09:31:49.652Z,12.87
2019-05-23T09:34:17.548Z,12.87
2019-05-23T09:36:45.251Z,12.54
2019-05-23T09:39:16.943Z,12.45
2019-05-23T09:41:45.944Z,12.42
2019-05-23T09:44:13.900Z,12.28
2019-05-23T09:46:42.536Z,12.26
2019-05-23T09:49:11.448Z,13.00
2019-05-23T09:51:39.576Z,13.17
2019-05-23T09:54:08.063Z,13.17
2019-05-23T09:56:36.168Z,13.43
2019-05-23T09:59:04.049Z,13.97
2019-05-23T10:01:32.194Z,14.01
2019-05-23T10:04:00.211Z,14.01
2019-05-23T10:06:28.885Z,13.71
2019-05-23T10:08:56.881Z,13.71
2019-05-23T10:11:24.612Z,13.59
2019-05-23T10:13:52.570Z,13.31
2019-05-23T10:16:20.551Z,12.67
2019-05-23T10:18:49.373Z,12.67
2019-05-23T10:21:17.251Z,12.47
2019-05-23T10:23:45.085Z,12.47
2019-05-23T10:26:12.941Z,12.41
2019-05-23T10:28:40.871Z,12.29
2019-05-23T10:31:10.706Z,12.34
2019-05-23T10:33:38.654Z,12.34
2019-05-23T10:36:06.626Z,12.44
2019-05-23T10:38:34.553Z,12.60
2019-05-23T10:41:04.911Z,12.56
2019-05-23T10:43:32.822Z,12.56
2019-05-23T10:46:00.816Z,12.55
2019-05-23T10:48:29.678Z,12.57
2019-05-23T10:50:57.521Z,12.58
2019-05-23T10:53:25.581Z,12.64
2019-05-23T10:55:53.594Z,12.61
2019-05-23T10:58:21.817Z,12.61
2019-05-23T11:00:49.803Z,12.61
2019-05-23T11:03:20.672Z,12.70
2019-05-23T11:05:48.829Z,12.70
2019-05-23T11:08:16.869Z,12.71
2019-05-23T11:10:45.126Z,12.71
2019-05-23T11:13:12.955Z,12.67
2019-05-23T11:15:41.266Z,12.77
2019-05-23T11:18:10.441Z,12.77
2019-05-23T11:20:38.864Z,12.77
2019-05-23T11:23:06.868Z,12.77
2019-05-23T11:25:37.912Z,12.77
2019-05-23T11:28:05.848Z,12.80
2019-05-23T11:30:43.372Z,12.79
2019-05-23T11:33:13.136Z,12.79
2019-05-23T11:35:41.443Z,12.87
2019-05-23T11:38:09.533Z,12.90
2019-05-23T11:40:37.695Z,12.90
2019-05-23T11:43:05.499Z,12.93
2019-05-23T11:45:45.646Z,12.89
2019-05-23T11:48:07.673Z,12.89
2019-05-23T11:50:36.810Z,12.95
2019-05-23T11:53:05.772Z,12.96
2019-05-23T11:55:33.674Z,12.96
2019-05-23T11:58:01.453Z,13.01
2019-05-23T12:01:10.099Z,12.99
2019-05-23T12:03:38.285Z,12.99
2019-05-23T12:06:06.463Z,12.99
2019-05-23T12:08:34.580Z,13.02
2019-05-23T12:11:02.813Z,13.02
2019-05-23T12:13:31.566Z,13.09
2019-05-23T12:16:00.370Z,13.09
2019-05-23T12:18:28.564Z,13.09
2019-05-23T12:20:59.567Z,13.14
2019-05-23T12:23:26.623Z,13.20
2019-05-23T12:25:54.512Z,13.20
2019-05-23T12:28:23.303Z,13.18
2019-05-23T12:30:51.123Z,13.15
2019-05-23T12:33:19.130Z,13.10
2019-05-23T12:35:46.952Z,13.10
2019-05-23T12:38:15.453Z,13.12
2019-05-23T12:40:43.341Z,13.10
2019-05-23T12:43:13.962Z,13.10
2019-05-23T12:45:42.339Z,13.17
2019-05-23T12:48:20.729Z,13.18
2019-05-23T12:50:54.540Z,13.21
2019-05-23T12:53:23.048Z,13.15
2019-05-23T12:55:50.790Z,13.13
2019-05-23T12:58:19.294Z,13.11
2019-05-23T13:00:51.947Z,13.11
2019-05-23T13:03:19.946Z,13.19
2019-05-23T13:05:47.893Z,13.15
2019-05-23T13:08:16.532Z,13.19
2019-05-23T13:10:44.493Z,13.22
2019-05-23T13:13:12.711Z,13.22
2019-05-23T13:15:40.714Z,13.25
2019-05-23T13:18:08.881Z,13.29
2019-05-23T13:20:37.806Z,13.29
2019-05-23T13:23:05.945Z,13.34
2019-05-23T13:25:33.938Z,13.40
2019-05-23T13:28:01.887Z,13.45
2019-05-23T13:30:30.472Z,13.45
2019-05-23T13:33:03.538Z,13.50
2019-05-23T13:35:30.713Z,13.55
2019-05-23T13:37:58.594Z,13.63
2019-05-23T13:40:26.391Z,13.70
2019-05-23T13:42:54.238Z,13.77
2019-05-23T13:45:22.340Z,13.86
2019-05-23T13:47:50.710Z,13.92
2019-05-23T13:50:19.166Z,13.99
2019-05-23T13:52:47.935Z,14.06
2019-05-23T13:55:16.167Z,14.20
2019-05-23T13:57:43.890Z,14.27
2019-05-23T14:00:14.499Z,14.37
2019-05-23T14:02:42.608Z,14.46
2019-05-23T14:05:11.408Z,14.59
2019-05-23T14:07:39.379Z,14.69
2019-05-23T14:10:08.946Z,14.88
2019-05-23T14:12:36.841Z,15.02
2019-05-23T14:15:04.971Z,15.13
2019-05-23T14:17:36.652Z,15.17
2019-05-23T14:20:04.883Z,15.13
2019-05-23T14:22:39.323Z,15.12
2019-05-23T14:25:07.611Z,15.12
2019-05-23T14:28:06.954Z,15.12
2019-05-23T14:30:56.872Z,15.14
2019-05-23T14:33:35.494Z,15.14
2019-05-23T14:36:07.780Z,15.10
2019-05-23T14:38:35.637Z,15.10
2019-05-23T14:41:04.850Z,15.12
2019-05-23T14:43:32.919Z,15.06
2019-05-23T14:46:12.034Z,15.06
2019-05-23T14:49:07.751Z,15.09
2019-05-23T14:52:01.148Z,15.05
2019-05-23T14:54:47.604Z,15.05
2019-05-23T14:57:15.629Z,15.05
2019-05-23T14:59:43.660Z,15.03
2019-05-23T15:02:18.560Z,14.98
2019-05-23T15:04:47.681Z,14.99
2019-05-23T15:07:15.768Z,15.05
2019-05-23T15:09:43.692Z,15.14
2019-05-23T15:12:11.531Z,15.13
2019-05-23T15:14:39.326Z,15.13
2019-05-23T15:17:07.424Z,15.24
2019-05-23T15:19:44.299Z,15.29
2019-05-23T15:22:06.275Z,15.33
2019-05-23T15:24:34.187Z,15.37
2019-05-23T15:27:02.173Z,15.40
2019-05-23T15:29:29.857Z,15.43
2019-05-23T15:32:02.108Z,15.47
2019-05-23T15:34:27.557Z,15.51
2019-05-23T15:36:55.441Z,15.53
2019-05-23T15:39:23.470Z,15.53
2019-05-23T15:41:51.556Z,15.52
2019-05-23T15:44:27.358Z,15.55
2019-05-23T15:46:49.793Z,15.53
2019-05-23T15:49:17.699Z,15.51
2019-05-23T15:52:05.784Z,15.54
2019-05-23T15:54:43.029Z,15.51
2019-05-23T15:57:37.456Z,15.44
2019-05-23T16:00:25.044Z,15.40
2019-05-23T16:03:03.823Z,15.38
2019-05-23T16:05:32.540Z,15.33
2019-05-23T16:08:00.720Z,15.35
2019-05-23T16:10:29.442Z,15.33
2019-05-23T16:12:57.580Z,15.26
2019-05-23T16:15:25.474Z,15.16
2019-05-23T16:17:53.477Z,15.15
2019-05-23T16:20:21.416Z,15.08
2019-05-23T16:22:49.192Z,15.12
2019-05-23T16:25:18.324Z,15.08
2019-05-23T16:27:46.321Z,15.03
2019-05-23T16:30:14.711Z,14.95
2019-05-23T16:32:46.403Z,14.94
2019-05-23T16:35:12.986Z,14.94
2019-05-23T16:37:40.710Z,14.96
2019-05-23T16:40:09.062Z,14.96
2019-05-23T16:42:39.372Z,14.95
2019-05-23T16:45:07.684Z,14.96
2019-05-23T16:47:36.258Z,14.96
2019-05-23T16:50:05.162Z,14.98
2019-05-23T16:52:33.808Z,14.91
2019-05-23T16:55:03.463Z,14.95
2019-05-23T16:57:38.829Z,14.89
2019-05-23T17:00:31.820Z,14.89
2019-05-23T17:03:16.293Z,14.87
2019-05-23T17:06:02.355Z,14.88
2019-05-23T17:08:38.410Z,14.92
2019-05-23T17:11:24.514Z,14.92
2019-05-23T17:14:02.986Z,14.93
2019-05-23T17:16:43.354Z,14.96
2019-05-23T17:19:33.930Z,14.93
2019-05-23T17:22:07.411Z,14.91
2019-05-23T17:24:53.306Z,14.85
2019-05-23T17:27:39.129Z,14.85
2019-05-23T17:30:35.731Z,14.87
2019-05-23T17:33:06.599Z,14.91
2019-05-23T17:35:35.086Z,14.91
2019-05-23T17:38:03.131Z,14.90
2019-05-23T17:40:32.057Z,14.90
2019-05-23T17:43:00.233Z,14.89
2019-05-23T17:45:29.131Z,14.91
2019-05-23T17:47:58.232Z,14.90
2019-05-23T17:50:26.801Z,14.89
2019-05-23T17:52:54.848Z,14.86
2019-05-23T17:55:22.738Z,14.81
2019-05-23T17:57:50.591Z,14.82
2019-05-23T18:00:21.776Z,14.81
2019-05-23T18:02:49.910Z,14.89
2019-05-23T18:05:18.179Z,14.88
2019-05-23T18:07:46.049Z,14.90
2019-05-23T18:10:14.436Z,14.91
2019-05-23T18:12:42.209Z,14.91
2019-05-23T18:15:13.040Z,14.91
2019-05-23T18:17:41.319Z,14.90
2019-05-23T18:20:09.519Z,14.90
2019-05-23T18:22:38.085Z,14.89
2019-05-23T18:25:08.622Z,14.86
2019-05-23T18:27:37.322Z,14.85
2019-05-23T18:30:07.319Z,14.84
2019-05-23T18:32:35.246Z,14.76
2019-05-23T18:35:03.822Z,14.76
2019-05-23T18:37:31.821Z,14.67
2019-05-23T18:39:59.578Z,14.66
2019-05-23T18:42:27.488Z,14.65
2019-05-23T18:44:56.178Z,14.66
2019-05-23T18:47:32.634Z,14.58
2019-05-23T18:50:01.103Z,14.61
2019-05-23T18:52:29.458Z,14.54
2019-05-23T18:54:57.202Z,14.53
2019-05-23T18:57:25.823Z,14.47
2019-05-23T18:59:53.595Z,14.49
2019-05-23T19:02:22.552Z,14.49
2019-05-23T19:04:51.964Z,14.48
2019-05-23T19:07:20.302Z,14.47
2019-05-23T19:09:48.124Z,14.47
2019-05-23T19:12:16.640Z,14.45
2019-05-23T19:14:44.459Z,14.42
2019-05-23T19:17:12.321Z,14.42
2019-05-23T19:19:40.331Z,14.48
2019-05-23T19:22:08.306Z,14.43
2019-05-23T19:24:37.020Z,14.47
2019-05-23T19:27:13.999Z,14.45
2019-05-23T19:29:41.472Z,14.48
2019-05-23T19:32:10.421Z,14.48
2019-05-23T19:34:38.433Z,14.42
2019-05-23T19:37:08.393Z,14.47
2019-05-23T19:39:36.628Z,14.44
2019-05-23T19:42:06.238Z,14.44
2019-05-23T19:44:34.266Z,14.44
2019-05-23T19:47:02.181Z,14.47
2019-05-23T19:49:29.943Z,14.46
2019-05-23T19:51:58.099Z,14.45
2019-05-23T19:54:26.201Z,14.43
2019-05-23T19:56:54.112Z,14.44
2019-05-23T19:59:22.034Z,14.38
2019-05-23T20:02:07.889Z,14.39
2019-05-23T20:04:38.993Z,14.38
2019-05-23T20:07:07.528Z,14.32
2019-05-23T20:09:36.146Z,14.33
2019-05-23T20:12:03.989Z,14.31
2019-05-23T20:14:31.922Z,14.32
2019-05-23T20:16:59.702Z,14.33
2019-05-23T20:19:27.792Z,14.33
2019-05-23T20:21:55.544Z,14.33
2019-05-23T20:24:23.866Z,14.32
2019-05-23T20:26:52.304Z,14.34
2019-05-23T20:29:20.239Z,14.34
2019-05-23T20:31:48.707Z,14.36
2019-05-23T20:34:16.727Z,14.35
2019-05-23T20:36:44.671Z,14.35
2019-05-23T20:39:12.474Z,14.36
2019-05-23T20:41:40.237Z,14.36
2019-05-23T20:44:08.254Z,14.27
2019-05-23T20:46:36.057Z,14.25
2019-05-23T20:49:03.936Z,14.12
2019-05-23T20:51:31.971Z,13.99
2019-05-23T20:53:59.733Z,13.94
2019-05-23T20:56:27.452Z,14.00
2019-05-23T20:58:55.643Z,14.04
2019-05-23T21:01:26.437Z,14.08
2019-05-23T21:03:55.338Z,14.11
2019-05-23T21:06:23.677Z,14.11
2019-05-23T21:08:51.543Z,14.11
2019-05-23T21:11:19.500Z,14.15
2019-05-23T21:13:47.418Z,14.09
2019-05-23T21:16:15.337Z,13.98
2019-05-23T21:18:43.208Z,13.97
2019-05-23T21:21:11.290Z,14.01
2019-05-23T21:23:39.042Z,14.04
2019-05-23T21:26:07.165Z,14.06
2019-05-23T21:28:36.092Z,14.06
2019-05-23T21:31:07.494Z,13.86
2019-05-23T21:33:35.440Z,13.92
2019-05-23T21:36:03.323Z,13.93
2019-05-23T21:38:31.297Z,13.81
2019-05-23T21:41:03.170Z,13.80
2019-05-23T21:43:29.718Z,13.82
2019-05-23T21:45:57.547Z,13.85
2019-05-23T21:48:25.417Z,13.65
2019-05-23T21:50:53.149Z,13.65
2019-05-23T21:53:21.135Z,13.70
2019-05-23T21:55:48.819Z,13.74
2019-05-23T21:58:16.805Z,13.74
2019-05-23T22:01:28.894Z,13.71
2019-05-23T22:04:32.100Z,13.56
2019-05-23T22:07:05.279Z,13.56
2019-05-23T22:09:33.598Z,13.59
2019-05-23T22:12:02.375Z,13.61
2019-05-23T22:14:30.454Z,13.61
2019-05-23T22:16:58.399Z,13.59
2019-05-23T22:19:26.685Z,13.60
2019-05-23T22:21:54.559Z,13.56
2019-05-23T22:24:22.648Z,13.56
2019-05-23T22:26:51.278Z,13.54
2019-05-23T22:29:19.685Z,13.50
2019-05-23T22:31:47.630Z,13.45
2019-05-23T22:34:34.269Z,13.44
2019-05-23T22:37:06.453Z,13.36
2019-05-23T22:39:34.419Z,13.38
2019-05-23T22:42:05.528Z,13.34
2019-05-23T22:44:33.882Z,13.33
2019-05-23T22:47:01.792Z,13.29
2019-05-23T22:49:29.496Z,13.26
2019-05-23T22:51:57.266Z,13.25
2019-05-23T22:54:24.991Z,13.21
2019-05-23T22:56:52.790Z,13.20
2019-05-23T22:59:20.475Z,13.17
2019-05-23T23:01:48.446Z,13.13
2019-05-23T23:04:16.191Z,13.11
2019-05-23T23:06:43.936Z,13.06
2019-05-23T23:09:12.595Z,13.05
2019-05-23T23:11:40.476Z,13.03
2019-05-23T23:14:08.309Z,12.99
2019-05-23T23:16:36.113Z,12.97
2019-05-23T23:19:04.335Z,12.94
2019-05-23T23:21:32.623Z,12.91
2019-05-23T23:24:00.403Z,12.89
2019-05-23T23:26:28.131Z,12.84
2019-05-23T23:28:56.100Z,12.80
2019-05-23T23:31:24.781Z,12.74
2019-05-23T23:33:52.823Z,12.71
2019-05-23T23:36:20.594Z,12.65
2019-05-23T23:38:48.289Z,12.59
2019-05-23T23:41:16.096Z,12.61
2019-05-23T23:43:58.632Z,12.59
2019-05-23T23:46:33.543Z,12.56
2019-05-23T23:49:19.575Z,12.52
2019-05-23T23:52:05.268Z,12.46
2019-05-23T23:54:51.038Z,12.42
2019-05-23T23:57:38.080Z,12.37
